Time;durP1;ratioP1;P1;durP2;ratioP2;P2;SDS_P1;SDS_P2;PMS_P1;PMS_P2;Temp;Humidity;BMP_temperature;BMP_pressure;BME280_temperature;BME280_humidity;BME280_pressure;Samples;Min_cycle;Max_cycle;Signal;HPM_P1;HPM_P2
2023/10/04 00:01:36;;;;;;;1.83;1.35;;;;;;;11.11;nan;60678.88;5011614;28;20200;-63
2023/10/04 00:04:03;;;;;;;1.55;1.45;;;;;;;10.92;nan;60591.13;5011717;28;20176;-63
2023/10/04 00:06:31;;;;;;;3.60;2.13;;;;;;;11.09;nan;60638.31;5011845;28;20186;-62
2023/10/04 00:08:56;;;;;;;4.43;1.25;;;;;;;10.84;nan;60740.56;5011743;28;20183;-63
2023/10/04 00:11:22;;;;;;;1.40;1.30;;;;;;;10.98;nan;60582.53;5011468;28;20174;-62
2023/10/04 00:13:47;;;;;;;1.58;1.48;;;;;;;10.73;nan;60624.03;5012036;28;20210;-61
2023/10/04 00:16:13;;;;;;;2.25;2.03;;;;;;;10.74;nan;60591.94;5011606;28;20175;-62
2023/10/04 00:18:38;;;;;;;1.98;1.75;;;;;;;10.94;nan;60616.38;5011621;28;20168;-62
2023/10/04 00:21:06;;;;;;;1.73;1.63;;;;;;;10.92;nan;60826.19;5011901;28;20200;-63
2023/10/04 00:23:32;;;;;;;1.50;1.40;;;;;;;10.91;nan;60710.09;5011731;28;20182;-63
2023/10/04 00:25:57;;;;;;;1.87;1.70;;;;;;;10.81;nan;60698.88;5011225;28;20262;-63
2023/10/04 00:28:22;;;;;;;2.70;2.03;;;;;;;10.85;nan;60596.06;5011360;28;20198;-63
2023/10/04 00:30:48;;;;;;;1.40;1.30;;;;;;;10.83;nan;60688.34;5011554;28;20509;-63
2023/10/04 00:33:13;;;;;;;1.50;1.40;;;;;;;10.89;nan;60593.44;5011041;28;20187;-63
2023/10/04 00:35:40;;;;;;;1.40;1.30;;;;;;;10.93;nan;60584.59;5011811;28;20176;-62
2023/10/04 00:38:08;;;;;;;2.70;1.67;;;;;;;10.63;nan;60682.31;5011416;28;20175;-61
2023/10/04 00:40:33;;;;;;;1.67;1.58;;;;;;;10.81;nan;60587.03;5011442;28;20326;-62
2023/10/04 00:43:01;;;;;;;1.92;1.83;;;;;;;10.74;nan;60689.00;5010549;28;20730;-63
2023/10/04 00:45:32;;;;;;;1.30;1.20;;;;;;;10.55;nan;60557.88;5014146;28;20179;-62
2023/10/04 00:47:58;;;;;;;1.40;1.30;;;;;;;10.51;nan;60656.09;5027948;28;20215;-62
2023/10/04 00:50:29;;;;;;;1.80;1.70;;;;;;;10.41;nan;60596.34;5015220;28;20703;-62
2023/10/04 00:53:05;;;;;;;2.07;1.83;;;;;;;10.47;nan;60672.03;5026764;28;20175;-62
2023/10/04 00:55:34;;;;;;;2.77;1.80;;;;;;;10.61;nan;60769.47;5034792;28;20682;-63
2023/10/04 00:58:05;;;;;;;1.60;1.50;;;;;;;10.61;nan;60524.31;5034797;28;20621;-63
2023/10/04 01:00:31;;;;;;;2.13;1.95;;;;;;;10.65;nan;60696.78;5034681;28;20266;-63
2023/10/04 01:02:57;;;;;;;2.30;1.80;;;;;;;10.84;nan;60722.66;5034585;28;20275;-63
2023/10/04 01:05:25;;;;;;;2.77;2.50;;;;;;;10.68;nan;60592.91;5034410;28;20673;-62
2023/10/04 01:07:52;;;;;;;1.40;1.30;;;;;;;10.61;nan;60529.41;5034177;28;20199;-63
2023/10/04 01:10:20;;;;;;;2.07;1.77;;;;;;;10.76;nan;60568.66;5034807;28;20183;-62
2023/10/04 01:12:47;;;;;;;1.77;1.67;;;;;;;10.72;nan;60790.94;5034259;28;20511;-62
2023/10/04 01:15:36;;;;;;;1.50;1.40;;;;;;;10.71;nan;60651.88;5034370;28;20178;-62
2023/10/04 01:18:00;;;;;;;1.33;1.27;;;;;;;10.64;nan;60808.59;5033847;28;20203;-62
2023/10/04 01:20:28;;;;;;;1.80;1.70;;;;;;;10.77;nan;60585.09;5034634;28;20237;-63
2023/10/04 01:23:06;;;;;;;5.60;1.80;;;;;;;10.69;nan;60573.00;5034220;28;20203;-63
2023/10/04 01:25:34;;;;;;;2.73;1.90;;;;;;;10.57;nan;60585.66;5032602;28;20262;-63
2023/10/04 01:28:01;;;;;;;1.57;1.47;;;;;;;10.44;nan;60658.47;5034562;28;20180;-62
2023/10/04 01:30:28;;;;;;;2.30;1.67;;;;;;;10.44;nan;60541.03;5033830;28;20194;-62
2023/10/04 01:32:54;;;;;;;2.00;1.80;;;;;;;10.35;nan;60594.75;5034096;28;20179;-63
2023/10/04 01:35:23;;;;;;;2.03;1.93;;;;;;;1.70;nan;59713.84;5034029;28;20541;-62
2023/10/04 01:37:50;;;;;;;1.50;1.40;;;;;;;10.24;nan;60477.22;5033989;28;20546;-62
2023/10/04 01:40:18;;;;;;;1.73;1.60;;;;;;;10.23;nan;60484.31;5034065;28;20174;-63
2023/10/04 01:42:45;;;;;;;1.97;1.80;;;;;;;10.09;nan;60593.63;5033807;28;20202;-63
2023/10/04 01:45:11;;;;;;;2.23;1.83;;;;;;;10.14;nan;60462.00;5033911;28;20285;-62
2023/10/04 01:47:38;;;;;;;2.60;2.27;;;;;;;10.28;nan;60558.81;5033787;28;20225;-63
2023/10/04 01:50:10;;;;;;;2.43;1.93;;;;;;;10.36;nan;60659.13;5033628;28;20183;-63
2023/10/04 01:52:38;;;;;;;4.03;1.73;;;;;;;10.29;nan;60468.06;5033812;28;20206;-62
2023/10/04 01:55:10;;;;;;;1.93;1.83;;;;;;;10.46;nan;60596.88;5033692;28;20263;-62
2023/10/04 01:57:38;;;;;;;2.53;1.73;;;;;;;10.15;nan;60442.75;5033344;28;20306;-63
2023/10/04 02:00:04;;;;;;;2.60;2.03;;;;;;;10.26;nan;60441.19;5033596;28;20194;-63
2023/10/04 02:02:29;;;;;;;1.80;1.70;;;;;;;10.27;nan;60605.63;5033500;28;20576;-62
2023/10/04 02:04:56;;;;;;;2.23;2.03;;;;;;;10.24;nan;60610.47;5033546;28;20179;-62
2023/10/04 02:07:22;;;;;;;2.77;1.50;;;;;;;10.43;nan;60506.72;5033503;28;20172;-62
2023/10/04 02:09:48;;;;;;;1.13;1.13;;;;;;;10.22;nan;60462.75;5033422;28;20179;-62
2023/10/04 02:12:13;;;;;;;1.63;1.53;;;;;;;10.37;nan;60675.56;5033169;28;20647;-62
2023/10/04 02:14:40;;;;;;;2.07;1.97;;;;;;;10.03;nan;60546.09;5033393;28;20176;-63
2023/10/04 02:17:08;;;;;;;1.63;1.50;;;;;;;10.19;nan;60628.41;5033288;28;20167;-62
2023/10/04 02:19:34;;;;;;;2.90;2.00;;;;;;;10.13;nan;60366.47;5033192;28;20187;-63
2023/10/04 02:22:00;;;;;;;1.53;1.43;;;;;;;10.17;nan;60342.91;5033170;28;20683;-62
2023/10/04 02:24:26;;;;;;;4.63;2.50;;;;;;;10.17;nan;60340.34;5033203;28;20634;-62
2023/10/04 02:26:52;;;;;;;2.47;2.27;;;;;;;10.25;nan;60583.53;5032938;28;20155;-62
2023/10/04 02:29:18;;;;;;;1.60;1.50;;;;;;;10.20;nan;60383.97;5033049;28;20178;-62
2023/10/04 02:31:44;;;;;;;2.03;1.83;;;;;;;10.18;nan;60333.81;5032738;28;20175;-63
2023/10/04 02:34:11;;;;;;;2.37;2.17;;;;;;;9.93;nan;60295.13;5033014;28;20171;-63
2023/10/04 02:36:37;;;;;;;1.43;1.33;;;;;;;10.13;nan;60345.50;5032922;28;20164;-63
2023/10/04 02:39:10;;;;;;;2.63;1.63;;;;;;;9.83;nan;60317.09;5033089;28;20598;-63
2023/10/04 02:41:36;;;;;;;1.60;1.50;;;;;;;9.85;nan;60284.19;5032622;28;20605;-63
2023/10/04 02:44:02;;;;;;;1.70;1.53;;;;;;;9.95;nan;60343.25;5033050;28;20255;-63
2023/10/04 02:46:28;;;;;;;2.43;1.60;;;;;;;9.92;nan;60222.56;5032753;28;20580;-62
2023/10/04 02:48:54;;;;;;;2.93;1.90;;;;;;;10.04;nan;60203.34;5033128;28;20176;-62
2023/10/04 02:51:20;;;;;;;2.40;2.20;;;;;;;9.95;nan;60236.13;5032595;28;20182;-62
2023/10/04 02:53:45;;;;;;;1.83;1.67;;;;;;;9.92;nan;60209.81;5032571;28;20225;-63
2023/10/04 02:56:11;;;;;;;2.03;1.93;;;;;;;9.68;nan;60277.94;5033208;28;20167;-63
2023/10/04 02:58:36;;;;;;;1.43;1.33;;;;;;;9.88;nan;60409.41;5033998;28;20222;-64
2023/10/04 03:01:03;;;;;;;2.03;1.93;;;;;;;9.85;nan;60279.06;5032463;28;20666;-64
2023/10/04 03:03:30;;;;;;;1.60;1.50;;;;;;;9.90;nan;60322.34;5032342;28;20176;-62
2023/10/04 03:05:56;;;;;;;2.30;2.10;;;;;;;9.90;nan;60384.13;5031976;28;20493;-62
2023/10/04 03:08:27;;;;;;;1.10;1.10;;;;;;;9.84;nan;60293.28;5032149;28;20179;-63
2023/10/04 03:10:54;;;;;;;1.87;1.53;;;;;;;9.85;nan;60393.31;5031901;28;20155;-62
2023/10/04 03:13:23;;;;;;;1.43;1.30;;;;;;;9.90;nan;60378.47;5032195;28;20298;-63
2023/10/04 03:15:52;;;;;;;2.00;1.90;;;;;;;9.98;nan;60351.72;5032242;28;20220;-63
2023/10/04 03:18:20;;;;;;;3.40;1.87;;;;;;;9.77;nan;60405.88;5032226;28;20179;-63
2023/10/04 03:23:40;;;;;;;2.17;1.90;;;;;;;9.57;nan;60184.66;5027561;28;20241;-63
2023/10/04 03:26:06;;;;;;;1.60;1.50;;;;;;;9.81;nan;60243.44;5016214;28;20175;-63
2023/10/04 03:28:37;;;;;;;1.40;1.30;;;;;;;9.69;nan;60462.66;5021894;28;20188;-64
2023/10/04 03:31:10;;;;;;;2.40;1.93;;;;;;;9.50;nan;60161.56;5012220;28;20244;-63
2023/10/04 03:33:35;;;;;;;1.87;1.67;;;;;;;9.62;nan;60162.19;5028246;28;20240;-63
2023/10/04 03:36:04;;;;;;;2.50;1.90;;;;;;;9.57;nan;60105.63;5031972;28;20163;-62
2023/10/04 03:38:33;;;;;;;2.43;2.17;;;;;;;9.55;nan;60149.28;5031537;28;20179;-64
2023/10/04 03:40:59;;;;;;;2.33;2.13;;;;;;;9.49;nan;59950.91;5031484;28;20734;-63
2023/10/04 03:43:24;;;;;;;1.83;1.60;;;;;;;9.34;nan;60085.13;5031730;28;20262;-64
2023/10/04 03:45:50;;;;;;;1.50;1.40;;;;;;;9.14;nan;60139.28;5031746;28;20167;-62
2023/10/04 03:48:16;;;;;;;2.07;1.43;;;;;;;9.42;nan;60157.75;5031599;28;20176;-63
2023/10/04 03:50:48;;;;;;;1.50;1.40;;;;;;;9.35;nan;60058.22;5031518;28;20175;-62
2023/10/04 03:53:15;;;;;;;1.60;1.50;;;;;;;9.39;nan;60082.50;5031633;28;20721;-63
2023/10/04 03:55:42;;;;;;;1.73;1.63;;;;;;;9.08;nan;59951.75;5031585;28;20171;-62
2023/10/04 03:58:09;;;;;;;1.93;1.70;;;;;;;9.07;nan;60047.41;5030777;28;20219;-63
2023/10/04 04:00:36;;;;;;;2.33;1.50;;;;;;;9.02;nan;59986.38;5030974;28;20175;-66
2023/10/04 04:03:03;;;;;;;1.30;1.27;;;;;;;9.14;nan;59854.00;5031166;28;20203;-63
2023/10/04 04:05:30;;;;;;;1.93;1.60;;;;;;;8.99;nan;59840.47;5031232;28;20186;-62
2023/10/04 04:07:56;;;;;;;1.50;1.40;;;;;;;;;;5031031;28;20171;-63
2023/10/04 04:10:22;;;;;;;2.90;2.03;;;;;;;8.88;nan;59704.06;5031124;28;20185;-64
2023/10/04 04:12:47;;;;;;;2.00;1.50;;;;;;;9.05;nan;59775.81;5014339;28;20212;-63
2023/10/04 04:15:23;;;;;;;1.40;1.30;;;;;;;9.29;nan;59756.00;5010281;28;20176;-63
2023/10/04 04:17:50;;;;;;;1.53;1.43;;;;;;;9.48;nan;59850.41;5006460;28;20520;-62
2023/10/04 04:20:19;;;;;;;1.67;1.57;;;;;;;9.32;nan;59825.56;5010243;28;20176;-63
2023/10/04 04:22:53;;;;;;;1.53;1.43;;;;;;;9.27;nan;59858.22;5013543;28;20258;-63
2023/10/04 04:25:23;;;;;;;1.33;1.30;;;;;;;9.41;nan;59845.75;5013791;28;20180;-63
2023/10/04 04:27:50;;;;;;;3.90;2.07;;;;;;;9.27;nan;59744.16;5010214;28;20191;-63
2023/10/04 04:30:22;;;;;;;2.70;1.60;;;;;;;9.40;nan;59846.63;5013246;28;20729;-63
2023/10/04 04:32:57;;;;;;;3.13;1.83;;;;;;;9.42;nan;59879.97;5025063;28;20558;-64
2023/10/04 04:35:47;;;;;;;1.67;1.57;;;;;;;9.39;nan;59904.66;5021510;28;20187;-64
2023/10/04 04:38:22;;;;;;;1.87;1.77;;;;;;;9.31;nan;59937.13;5017084;28;20164;-63
2023/10/04 04:40:49;;;;;;;4.07;1.83;;;;;;;9.43;nan;59870.34;5034822;28;20594;-63
2023/10/04 04:45:53;;;;;;;4.10;1.87;;;;;;;9.53;nan;60093.53;5035298;28;20167;-63
2023/10/04 04:48:24;;;;;;;2.13;1.70;;;;;;;9.35;nan;59991.97;5034475;28;20164;-63
2023/10/04 04:50:58;;;;;;;1.53;1.43;;;;;;;9.59;nan;60079.81;5034735;28;20933;-63
2023/10/04 04:53:27;;;;;;;1.10;1.10;;;;;;;9.72;nan;60047.84;5034807;28;20191;-65
2023/10/04 04:56:16;;;;;;;1.57;1.47;;;;;;;9.87;nan;60133.41;5024057;28;20210;-64
2023/10/04 04:58:44;;;;;;;1.40;1.30;;;;;;;10.06;nan;60190.28;5019221;28;20231;-65
2023/10/04 05:01:11;;;;;;;3.53;1.83;;;;;;;9.99;nan;60283.94;5024378;28;20199;-64
2023/10/04 05:03:41;;;;;;;1.40;1.30;;;;;;;10.25;nan;60330.88;5011902;28;20215;-63
2023/10/04 05:06:09;;;;;;;1.23;1.17;;;;;;;10.51;nan;60469.69;5025490;28;20246;-64
2023/10/04 05:08:36;;;;;;;1.47;1.37;;;;;;;10.51;nan;60405.88;5031833;28;20187;-63
2023/10/04 05:11:05;;;;;;;1.47;1.37;;;;;;;10.62;nan;60344.13;5031924;28;20263;-64
2023/10/04 05:13:31;;;;;;;1.90;1.77;;;;;;;10.51;nan;60462.03;5031579;28;20278;-64
2023/10/04 05:15:56;;;;;;;1.63;1.53;;;;;;;10.80;nan;60672.19;5031381;28;20255;-63
2023/10/04 05:18:22;;;;;;;1.40;1.33;;;;;;;10.94;nan;60268.91;5031746;28;20183;-63
2023/10/04 05:21:00;;;;;;;2.75;1.83;;;;;;;11.15;nan;60496.78;5031848;28;20172;-63
2023/10/04 05:23:29;;;;;;;1.90;1.55;;;;;;;11.25;nan;60520.19;5020987;28;20202;-63
2023/10/04 05:25:54;;;;;;;1.90;1.80;;;;;;;11.39;nan;60590.13;5017662;28;20291;-63
2023/10/04 05:28:24;;;;;;;1.70;1.60;;;;;;;11.27;nan;60640.63;5011747;28;20282;-63
2023/10/04 05:30:51;;;;;;;4.35;2.05;;;;;;;11.73;nan;60742.84;5007006;28;20198;-64
2023/10/04 05:33:19;;;;;;;1.83;1.65;;;;;;;11.65;nan;60546.56;5033400;28;20191;-63
2023/10/04 05:35:47;;;;;;;3.30;1.88;;;;;;;11.70;nan;60664.72;5033890;28;20179;-64
2023/10/04 05:38:14;;;;;;;1.20;1.13;;;;;;;11.93;nan;60737.16;5031889;28;20206;-63
2023/10/04 05:40:43;;;;;;;1.60;1.50;;;;;;;12.07;nan;60690.88;5003105;28;20307;-63
2023/10/04 05:43:09;;;;;;;1.50;1.40;;;;;;;12.28;nan;60744.63;5004325;28;20188;-65
2023/10/04 05:45:36;;;;;;;1.63;1.52;;;;;;;12.21;nan;60824.38;4994644;28;20668;-64
2023/10/04 05:48:01;;;;;;;2.53;2.33;;;;;;;12.21;nan;60680.97;4994332;28;20176;-63
2023/10/04 05:50:32;;;;;;;1.83;1.67;;;;;;;12.61;nan;60758.63;4994026;28;20675;-64
2023/10/04 05:52:58;;;;;;;5.65;3.90;;;;;;;12.45;nan;60707.34;4994603;28;20260;-63
2023/10/04 05:55:24;;;;;;;1.60;1.50;;;;;;;12.77;nan;60763.22;4994386;28;20252;-63
2023/10/04 05:57:50;;;;;;;2.45;1.73;;;;;;;12.86;nan;60970.69;4993970;28;20217;-63
2023/10/04 06:02:53;;;;;;;1.40;1.30;;;;;;;13.20;nan;60944.34;4994098;28;20626;-63
2023/10/04 06:05:23;;;;;;;2.15;1.95;;;;;;;13.48;nan;60862.97;4993577;28;20307;-64
2023/10/04 06:07:51;;;;;;;2.25;1.90;;;;;;;13.53;nan;61102.13;4993978;28;20311;-63
2023/10/04 06:10:17;;;;;;;1.95;1.60;;;;;;;13.64;nan;60993.34;4994844;28;20176;-63
2023/10/04 06:12:44;;;;;;;1.17;1.10;;;;;;;13.80;nan;60970.28;4993720;28;20267;-62
2023/10/04 06:15:10;;;;;;;2.50;1.60;;;;;;;13.84;nan;60999.88;4992756;28;20173;-63
2023/10/04 06:17:42;;;;;;;1.70;1.60;;;;;;;14.08;nan;60970.97;4993633;28;20257;-63
2023/10/04 06:20:25;;;;;;;2.22;1.73;;;;;;;14.11;nan;60978.94;4993717;28;20161;-63
2023/10/04 06:22:59;;;;;;;1.90;1.50;;;;;;;14.44;nan;61030.97;4994183;28;20196;-64
2023/10/04 06:25:26;;;;;;;1.85;1.33;;;;;;;14.45;nan;61155.47;4994541;28;20275;-64
2023/10/04 06:27:54;;;;;;;1.58;1.48;;;;;;;14.59;nan;60991.31;4994019;28;20168;-62
2023/10/04 06:30:26;;;;;;;2.20;1.63;;;;;;;14.74;nan;61041.06;4994251;28;20263;-63
2023/10/04 06:32:56;;;;;;;1.38;1.27;;;;;;;14.84;nan;61034.34;4994141;28;20663;-64
2023/10/04 06:35:23;;;;;;;1.40;1.30;;;;;;;14.98;nan;61165.88;4992633;28;20230;-64
2023/10/04 06:37:52;;;;;;;1.80;1.70;;;;;;;15.11;nan;61187.69;4994021;28;20180;-63
2023/10/04 06:40:21;;;;;;;1.83;1.73;;;;;;;15.25;nan;61090.25;4994239;28;20264;-63
2023/10/04 06:42:51;;;;;;;2.20;1.65;;;;;;;15.56;nan;61114.94;4993671;28;20205;-63
2023/10/04 06:45:18;;;;;;;2.28;1.67;;;;;;;15.67;nan;61147.94;4993106;28;20183;-64
2023/10/04 06:47:45;;;;;;;1.52;1.42;;;;;;;15.77;nan;61141.16;4993936;28;20272;-64
2023/10/04 06:50:13;;;;;;;2.38;1.40;;;;;;;15.84;nan;61076.94;4993866;28;20248;-63
2023/10/04 06:52:41;;;;;;;1.67;1.58;;;;;;;16.18;nan;61168.25;4993784;28;20172;-64
2023/10/04 06:55:08;;;;;;;2.05;1.85;;;;;;;16.22;nan;61317.09;4993279;28;20188;-64
2023/10/04 06:57:35;;;;;;;2.38;1.70;;;;;;;16.38;nan;61177.91;4993313;28;20831;-63
2023/10/04 07:00:00;;;;;;;2.42;1.92;;;;;;;16.42;nan;61215.94;4993249;28;20640;-64
2023/10/04 07:02:26;;;;;;;4.13;1.60;;;;;;;16.48;nan;61320.69;4993139;28;20203;-63
2023/10/04 07:04:52;;;;;;;1.92;1.17;;;;;;;16.74;nan;61342.38;5005525;28;20632;-63
2023/10/04 07:07:18;;;;;;;1.58;1.48;;;;;;;16.75;nan;61340.34;5026835;28;20194;-64
2023/10/04 07:09:43;;;;;;;1.80;1.60;;;;;;;16.99;nan;61289.50;5014941;28;20172;-64
2023/10/04 07:12:09;;;;;;;2.75;1.83;;;;;;;17.06;nan;61315.50;5015429;28;20250;-63
2023/10/04 07:14:34;;;;;;;1.42;1.33;;;;;;;17.30;nan;61298.13;5032453;28;20175;-63
2023/10/04 07:16:59;;;;;;;2.28;1.35;;;;;;;17.37;nan;61306.63;5032037;28;20172;-64
2023/10/04 07:19:28;;;;;;;1.88;1.42;;;;;;;17.37;nan;61265.28;5032449;28;20171;-64
2023/10/04 07:21:55;;;;;;;2.85;1.60;;;;;;;17.91;nan;61358.75;5032279;28;20218;-63
2023/10/04 07:24:20;;;;;;;1.15;1.10;;;;;;;17.69;nan;61370.06;5032139;28;20688;-65
2023/10/04 07:26:45;;;;;;;1.42;1.27;;;;;;;17.72;nan;61365.69;5032453;28;20171;-63
2023/10/04 07:29:11;;;;;;;5.15;1.60;;;;;;;17.96;nan;61669.44;5032555;28;20201;-64
2023/10/04 07:31:36;;;;;;;1.50;1.10;;;;;;;18.10;nan;61408.66;5032580;28;20182;-64
2023/10/04 07:34:02;;;;;;;1.77;1.67;;;;;;;17.94;nan;61367.88;5032020;28;20167;-63
2023/10/04 07:36:28;;;;;;;1.92;1.55;;;;;;;18.24;nan;61390.88;5032341;28;20171;-64
2023/10/04 07:38:54;;;;;;;1.90;1.40;;;;;;;18.03;nan;61369.75;5031981;28;20190;-64
2023/10/04 07:41:20;;;;;;;1.35;1.00;;;;;;;18.36;nan;61678.06;5031732;28;20174;-63
2023/10/04 07:43:46;;;;;;;2.88;2.33;;;;;;;18.61;nan;61465.25;5030448;28;20181;-64
2023/10/04 07:46:11;;;;;;;2.20;1.70;;;;;;;18.60;nan;61415.50;5032008;28;20564;-64
2023/10/04 07:48:37;;;;;;;3.22;1.63;;;;;;;18.87;nan;61512.78;5031685;28;20171;-63
2023/10/04 07:51:02;;;;;;;1.88;1.30;;;;;;;18.72;nan;61464.75;5031853;28;20557;-64
2023/10/04 07:53:28;;;;;;;2.20;1.25;;;;;;;18.89;nan;61452.91;5031652;28;20167;-64
2023/10/04 07:55:53;;;;;;;6.07;1.42;;;;;;;18.87;nan;61481.72;5031473;28;20179;-64
2023/10/04 07:58:19;;;;;;;1.40;1.30;;;;;;;18.81;nan;61477.53;5031715;28;20223;-64
2023/10/04 08:00:44;;;;;;;1.88;1.25;;;;;;;19.11;nan;61532.19;5031738;28;20178;-64
2023/10/04 08:03:10;;;;;;;3.17;1.52;;;;;;;19.52;nan;61562.50;5031578;28;20617;-64
2023/10/04 08:05:36;;;;;;;2.13;1.02;;;;;;;;;;5031278;28;20241;-64
2023/10/04 08:08:03;;;;;;;1.25;1.02;;;;;;;19.50;nan;61518.22;5031608;28;20171;-64
2023/10/04 08:10:31;;;;;;;2.15;1.70;;;;;;;19.54;nan;61652.34;5031232;28;20183;-64
2023/10/04 08:12:59;;;;;;;4.40;1.55;;;;;;;19.97;nan;61659.63;5031548;28;20263;-65
2023/10/04 08:15:27;;;;;;;1.38;1.10;;;;;;;19.75;nan;61619.09;5031711;28;20182;-64
2023/10/04 08:17:56;;;;;;;3.33;1.70;;;;;;;19.68;nan;61621.56;5032185;28;20202;-64
2023/10/04 08:20:24;;;;;;;0.85;0.85;;;;;;;19.86;nan;61592.69;5031758;28;20241;-64
2023/10/04 08:22:50;;;;;;;1.83;1.63;;;;;;;19.97;nan;61617.56;5031661;28;20666;-64
2023/10/04 08:25:17;;;;;;;2.15;1.33;;;;;;;19.86;nan;61556.38;5031880;28;20175;-64
2023/10/04 08:27:43;;;;;;;1.48;1.10;;;;;;;20.19;nan;61660.66;5031658;28;20702;-63
2023/10/04 08:30:13;;;;;;;1.98;1.60;;;;;;;20.48;nan;61765.66;5031474;28;20253;-63
2023/10/04 08:32:43;;;;;;;3.03;1.98;;;;;;;20.48;nan;61703.38;5032010;28;20206;-63
2023/10/04 08:35:21;;;;;;;1.48;1.08;;;;;;;20.58;nan;61800.94;5030235;28;20532;-64
2023/10/04 08:37:53;;;;;;;3.85;1.83;;;;;;;20.93;nan;61966.84;5031641;28;20187;-63
2023/10/04 08:40:18;;;;;;;1.83;1.05;;;;;;;18.59;nan;61486.28;5031295;28;20164;-65
2023/10/04 08:42:48;;;;;;;2.13;1.80;;;;;;;20.93;nan;61701.91;5031309;28;20201;-64
2023/10/04 08:45:14;;;;;;;2.40;1.55;;;;;;;21.20;nan;61849.47;5031387;28;20168;-64
2023/10/04 08:47:40;;;;;;;1.75;1.63;;;;;;;21.32;nan;61782.53;5030260;28;20174;-64
2023/10/04 08:50:12;;;;;;;1.30;1.20;;;;;;;21.34;nan;61912.19;5031553;28;20610;-65
2023/10/04 08:52:41;;;;;;;1.60;1.50;;;;;;;21.28;nan;61731.22;5031276;28;20682;-65
2023/10/04 08:55:09;;;;;;;2.45;1.90;;;;;;;20.40;nan;61787.72;5031280;28;20232;-63
2023/10/04 08:57:38;;;;;;;2.08;1.77;;;;;;;21.26;nan;61725.78;5031603;28;20223;-65
2023/10/04 09:00:10;;;;;;;1.55;1.27;;;;;;;21.57;nan;61901.34;5031259;28;20171;-65
2023/10/04 09:02:36;;;;;;;1.63;1.27;;;;;;;21.68;nan;61783.84;5031341;28;20241;-64
2023/10/04 09:05:04;;;;;;;2.95;1.45;;;;;;;22.05;nan;61861.16;5031673;28;20216;-65
2023/10/04 09:07:30;;;;;;;3.90;1.75;;;;;;;21.89;nan;61927.34;5026336;28;20179;-63
2023/10/04 09:09:58;;;;;;;1.92;1.40;;;;;;;21.83;nan;61940.75;5014698;28;20620;-64
2023/10/04 09:12:23;;;;;;;2.30;1.80;;;;;;;21.94;nan;61885.63;5014936;28;20176;-66
2023/10/04 09:14:50;;;;;;;1.92;1.48;;;;;;;21.78;nan;61813.38;5013445;28;20194;-64
2023/10/04 09:17:17;;;;;;;3.25;1.55;;;;;;;21.94;nan;61893.44;5014753;28;20663;-64
2023/10/04 09:19:45;;;;;;;7.63;2.25;;;;;;;22.14;nan;61923.41;5014240;28;20586;-65
2023/10/04 09:22:10;;;;;;;2.00;1.50;;;;;;;22.42;nan;61986.50;5014728;28;20208;-64
2023/10/04 09:24:55;;;;;;;2.05;1.52;;;;;;;22.36;nan;61902.13;5014527;28;20183;-64
2023/10/04 09:27:21;;;;;;;1.23;1.13;;;;;;;22.65;nan;61960.00;5014482;28;20186;-64
2023/10/04 09:29:48;;;;;;;2.67;2.13;;;;;;;22.37;nan;61871.47;5014453;28;20184;-64
2023/10/04 09:32:14;;;;;;;1.65;1.52;;;;;;;22.39;nan;61973.25;5014069;28;20183;-64
2023/10/04 09:34:39;;;;;;;4.25;1.25;;;;;;;22.49;nan;61960.59;5014172;28;20614;-64
2023/10/04 09:37:21;;;;;;;2.83;1.67;;;;;;;22.63;nan;61879.59;5013982;28;20168;-64
2023/10/04 09:39:46;;;;;;;2.75;1.65;;;;;;;22.57;nan;61912.41;5014210;28;20263;-64
2023/10/04 09:42:14;;;;;;;1.38;1.23;;;;;;;22.35;nan;61955.09;5014023;28;20279;-64
2023/10/04 09:44:40;;;;;;;1.38;1.23;;;;;;;22.81;nan;61915.69;5014207;28;20160;-64
2023/10/04 09:47:05;;;;;;;1.70;1.35;;;;;;;22.99;nan;61946.00;5014061;28;20605;-64
2023/10/04 09:49:32;;;;;;;2.78;1.70;;;;;;;23.20;nan;61975.09;5014084;28;20639;-64
2023/10/04 09:52:02;;;;;;;1.73;1.50;;;;;;;23.29;nan;62001.53;5013673;28;20168;-64
2023/10/04 09:54:28;;;;;;;1.48;1.27;;;;;;;23.35;nan;62044.84;5013999;28;20165;-64
2023/10/04 09:56:54;;;;;;;1.45;1.35;;;;;;;23.10;nan;61995.56;5013902;28;20569;-64
2023/10/04 09:59:23;;;;;;;2.30;1.65;;;;;;;23.26;nan;61943.34;5013684;28;20334;-64
2023/10/04 10:01:55;;;;;;;3.60;1.50;;;;;;;23.10;nan;61981.97;5013281;28;20649;-64
2023/10/04 10:04:28;;;;;;;2.75;1.40;;;;;;;23.17;nan;62099.97;5013674;28;20191;-64
2023/10/04 10:07:11;;;;;;;1.95;1.58;;;;;;;23.28;nan;62094.28;5013353;28;20176;-64
2023/10/04 10:09:48;;;;;;;2.92;1.58;;;;;;;23.50;nan;62019.06;5013922;28;20610;-65
2023/10/04 10:12:14;;;;;;;2.95;1.67;;;;;;;23.69;nan;62066.78;5013669;28;20594;-63
2023/10/04 10:14:42;;;;;;;2.28;1.90;;;;;;;24.13;nan;62186.84;5013652;28;20172;-64
2023/10/04 10:17:10;;;;;;;3.55;1.45;;;;;;;24.12;nan;62078.63;5013272;28;20275;-64
2023/10/04 10:19:36;;;;;;;2.30;1.55;;;;;;;24.18;nan;62206.16;5012007;28;20173;-63
2023/10/04 10:22:10;;;;;;;1.50;1.38;;;;;;;24.12;nan;62102.69;5013267;28;20188;-64
2023/10/04 10:24:44;;;;;;;2.85;1.58;;;;;;;24.38;nan;62142.19;5012755;28;20223;-65
2023/10/04 10:27:13;;;;;;;2.15;1.42;;;;;;;24.55;nan;62137.50;5012838;28;20199;-64
2023/10/04 10:29:40;;;;;;;3.08;2.45;;;;;;;24.65;nan;62191.25;5012907;28;20184;-64
2023/10/04 10:32:22;;;;;;;4.50;2.15;;;;;;;24.65;nan;62183.41;5012977;28;20172;-64
2023/10/04 10:34:50;;;;;;;4.15;1.40;;;;;;;24.77;nan;62293.25;5012521;28;20633;-65
2023/10/04 10:37:23;;;;;;;2.40;1.55;;;;;;;24.67;nan;62343.97;5013138;28;20222;-64
2023/10/04 10:39:55;;;;;;;1.85;1.50;;;;;;;24.97;nan;62219.31;5013099;28;20215;-64
2023/10/04 10:42:21;;;;;;;2.03;1.55;;;;;;;24.98;nan;62233.53;5012713;28;20196;-64
2023/10/04 10:44:50;;;;;;;2.15;1.40;;;;;;;25.10;nan;62361.19;5012826;28;20678;-64
2023/10/04 10:47:25;;;;;;;1.52;1.40;;;;;;;25.36;nan;62346.97;5012415;28;20222;-64
2023/10/04 10:50:03;;;;;;;2.75;1.40;;;;;;;25.45;nan;62309.56;5012751;28;20183;-64
2023/10/04 10:52:38;;;;;;;1.10;0.98;;;;;;;25.56;nan;62358.22;5012734;28;20195;-64
2023/10/04 10:55:17;;;;;;;3.15;1.80;;;;;;;25.35;nan;62402.81;5013105;28;20180;-63
2023/10/04 10:57:44;;;;;;;1.40;1.27;;;;;;;25.39;nan;62273.91;5012266;28;20223;-64
2023/10/04 11:02:40;;;;;;;1.60;1.08;;;;;;;25.36;nan;62435.34;5012508;28;20231;-64
2023/10/04 11:05:07;;;;;;;1.85;1.60;;;;;;;25.60;nan;62313.03;5012335;28;20212;-64
2023/10/04 11:07:33;;;;;;;2.67;1.52;;;;;;;25.56;nan;62413.75;5012594;28;20180;-64
2023/10/04 11:09:59;;;;;;;2.75;1.83;;;;;;;25.85;nan;62388.69;5012752;28;20184;-64
2023/10/04 11:12:25;;;;;;;4.05;1.55;;;;;;;25.78;nan;62354.53;5012330;28;20180;-65
2023/10/04 11:14:52;;;;;;;3.15;2.13;;;;;;;25.73;nan;62344.16;5012618;28;20233;-64
2023/10/04 11:17:18;;;;;;;3.15;2.33;;;;;;;25.60;nan;62423.56;5012551;28;20303;-65
2023/10/04 11:19:44;;;;;;;1.95;1.30;;;;;;;25.58;nan;62310.75;5012439;28;20187;-65
2023/10/04 11:22:11;;;;;;;3.22;1.55;;;;;;;25.47;nan;62333.34;5012294;28;20192;-65
2023/10/04 11:24:39;;;;;;;1.48;1.38;;;;;;;25.72;nan;62460.25;5012339;28;20168;-65
2023/10/04 11:27:06;;;;;;;2.53;1.58;;;;;;;25.80;nan;62351.59;5012091;28;20745;-64
2023/10/04 11:29:33;;;;;;;1.80;1.60;;;;;;;25.97;nan;62313.38;5012455;28;20254;-64
2023/10/04 11:31:58;;;;;;;1.40;1.30;;;;;;;25.96;nan;62461.50;5011800;28;20267;-64
2023/10/04 11:34:27;;;;;;;3.00;1.58;;;;;;;26.09;nan;62492.09;5012132;28;20251;-65
2023/10/04 11:37:02;;;;;;;1.95;1.30;;;;;;;25.87;nan;62399.41;5012043;28;20192;-64
2023/10/04 11:39:34;;;;;;;2.63;2.10;;;;;;;25.77;nan;62319.34;5011439;28;20175;-65
2023/10/04 11:42:04;;;;;;;1.95;1.25;;;;;;;25.80;nan;62403.94;5011464;28;20210;-64
2023/10/04 11:44:35;;;;;;;3.88;1.50;;;;;;;25.51;nan;62400.16;5011854;28;20180;-63
2023/10/04 11:47:08;;;;;;;23.77;2.22;;;;;;;25.62;nan;62380.78;5011906;28;20173;-64
2023/10/04 11:49:34;;;;;;;2.53;1.30;;;;;;;25.58;nan;62332.25;5012038;28;20179;-63
2023/10/04 11:52:05;;;;;;;6.32;1.55;;;;;;;25.57;nan;62343.66;5011597;28;20176;-64
2023/10/04 11:54:46;;;;;;;1.98;1.50;;;;;;;25.87;nan;62362.75;5011799;28;20183;-63
2023/10/04 11:57:23;;;;;;;2.47;1.67;;;;;;;25.99;nan;62412.00;5011762;28;20293;-64
2023/10/04 11:59:48;;;;;;;2.20;1.45;;;;;;;26.13;nan;62480.38;5012052;28;20669;-64
2023/10/04 12:02:13;;;;;;;2.38;1.90;;;;;;;26.20;nan;62486.34;5011482;28;20227;-65
2023/10/04 12:04:39;;;;;;;1.83;1.50;;;;;;;23.55;nan;62085.34;5011639;28;20558;-65
2023/10/04 12:07:06;;;;;;;2.83;1.63;;;;;;;26.19;nan;62383.00;5011751;28;20188;-64
2023/10/04 12:09:33;;;;;;;3.65;1.83;;;;;;;26.31;nan;62388.84;5011924;28;20171;-63